createdAt,value
2019-05-12T00:02:29.564Z,4.03
2019-05-12T00:05:05.904Z,6.45
2019-05-12T00:07:45.101Z,4.70
2019-05-12T00:10:24.895Z,4.17
2019-05-12T00:13:04.121Z,4.22
2019-05-12T00:15:41.846Z,3.37
2019-05-12T00:18:19.408Z,5.83
2019-05-12T00:20:59.491Z,7.25
2019-05-12T00:23:38.464Z,5.53
2019-05-12T00:26:20.023Z,4.83
2019-05-12T00:28:58.789Z,5.20
2019-05-12T00:31:38.265Z,2.72
2019-05-12T00:34:18.209Z,3.98
2019-05-12T00:36:57.737Z,2.87
2019-05-12T00:39:38.206Z,4.47
2019-05-12T00:42:18.409Z,3.85
2019-05-12T00:44:58.418Z,4.72
2019-05-12T00:47:38.635Z,3.22
2019-05-12T00:50:14.945Z,3.58
2019-05-12T00:52:52.966Z,4.55
2019-05-12T00:55:30.703Z,5.40
2019-05-12T00:58:08.703Z,3.33
2019-05-12T01:00:48.243Z,3.98
2019-05-12T01:03:28.066Z,4.17
2019-05-12T01:06:08.718Z,3.12
2019-05-12T01:08:48.275Z,3.95
2019-05-12T01:11:25.069Z,3.92
2019-05-12T01:14:04.332Z,4.40
2019-05-12T01:16:41.898Z,3.77
2019-05-12T01:20:08.836Z,3.92
2019-05-12T01:22:50.667Z,4.50
2019-05-12T01:25:31.221Z,5.03
2019-05-12T01:28:12.119Z,3.92
2019-05-12T01:30:50.312Z,6.03
2019-05-12T01:33:27.940Z,3.22
2019-05-12T01:36:03.194Z,4.50
2019-05-12T01:39:29.523Z,3.02
2019-05-12T01:42:54.626Z,2.52
2019-05-12T01:46:01.366Z,3.67
2019-05-12T01:49:08.411Z,3.83
2019-05-12T01:52:33.419Z,4.97
2019-05-12T01:55:58.685Z,3.00
2019-05-12T01:59:23.851Z,3.00
2019-05-12T02:02:49.295Z,3.35
2019-05-12T02:06:14.140Z,3.58
2019-05-12T02:09:39.420Z,3.55
2019-05-12T02:13:04.149Z,3.15
2019-05-12T02:16:13.834Z,9.13
2019-05-12T02:18:51.332Z,11.97
2019-05-12T02:21:27.962Z,20.02
2019-05-12T02:24:07.807Z,5.22
2019-05-12T02:26:48.520Z,15.65
2019-05-12T02:29:25.417Z,2.27
2019-05-12T02:32:05.562Z,1.90
2019-05-12T02:34:45.738Z,7.17
2019-05-12T02:37:26.036Z,8.30
2019-05-12T02:39:58.884Z,3.60
2019-05-12T02:42:38.131Z,25.20
2019-05-12T02:45:15.409Z,3.95
2019-05-12T02:47:49.804Z,10.43
2019-05-12T02:50:35.740Z,5.15
2019-05-12T02:53:15.994Z,4.72
2019-05-12T02:55:55.612Z,3.72
2019-05-12T02:58:38.092Z,6.55
2019-05-12T03:01:16.400Z,4.12
2019-05-12T03:03:58.197Z,4.97
2019-05-12T03:06:36.059Z,4.70
2019-05-12T03:09:15.123Z,4.00
2019-05-12T03:11:56.775Z,4.03
2019-05-12T03:14:40.233Z,12.45
2019-05-12T03:17:15.318Z,5.65
2019-05-12T03:19:55.685Z,4.05
2019-05-12T03:22:35.037Z,4.47
2019-05-12T03:25:19.855Z,5.25
2019-05-12T03:27:54.314Z,5.97
2019-05-12T03:30:30.403Z,2.60
2019-05-12T03:33:11.821Z,3.83
2019-05-12T03:35:53.170Z,8.20
2019-05-12T03:38:27.952Z,6.25
2019-05-12T03:41:05.879Z,6.50
2019-05-12T03:43:44.820Z,7.75
2019-05-12T03:46:24.853Z,5.87
2019-05-12T03:49:05.276Z,2.87
2019-05-12T03:51:45.397Z,6.53
2019-05-12T03:54:24.166Z,2.37
2019-05-12T03:56:57.937Z,3.50
2019-05-12T03:59:35.576Z,4.60
2019-05-12T04:02:10.978Z,4.60
2019-05-12T04:04:48.401Z,7.80
2019-05-12T04:07:26.080Z,5.60
2019-05-12T04:10:01.254Z,2.72
2019-05-12T04:12:36.334Z,4.28
2019-05-12T04:15:15.231Z,4.10
2019-05-12T04:17:54.521Z,3.42
2019-05-12T04:20:35.742Z,21.45
2019-05-12T04:23:08.859Z,3.90
2019-05-12T04:25:53.998Z,8.63
2019-05-12T04:28:27.929Z,3.10
2019-05-12T04:31:05.706Z,3.65
2019-05-12T04:33:45.340Z,1.85
2019-05-12T04:36:25.010Z,4.80
2019-05-12T04:39:00.654Z,3.50
2019-05-12T04:41:38.131Z,3.80
2019-05-12T04:44:16.058Z,4.22
2019-05-12T04:46:55.685Z,10.28
2019-05-12T04:49:36.410Z,4.80
2019-05-12T04:52:15.561Z,3.47
2019-05-12T04:54:55.263Z,2.70
2019-05-12T04:57:34.659Z,4.42
2019-05-12T05:00:10.670Z,3.77
2019-05-12T05:02:48.094Z,3.37
2019-05-12T05:05:25.717Z,3.05
2019-05-12T05:08:00.817Z,5.40
2019-05-12T05:10:39.467Z,7.33
2019-05-12T05:13:17.300Z,7.53
2019-05-12T05:15:57.064Z,6.58
2019-05-12T05:18:34.676Z,3.17
2019-05-12T05:21:14.110Z,2.33
2019-05-12T05:23:49.303Z,2.30
2019-05-12T05:26:28.386Z,2.70
2019-05-12T05:29:06.150Z,6.00
2019-05-12T05:31:44.214Z,2.83
2019-05-12T05:34:23.615Z,5.35
2019-05-12T05:37:01.513Z,2.65
2019-05-12T05:39:47.617Z,3.35
2019-05-12T05:42:16.355Z,5.25
2019-05-12T05:44:54.295Z,2.70
2019-05-12T05:47:33.622Z,4.28
2019-05-12T05:50:13.383Z,3.55
2019-05-12T05:52:50.658Z,6.92
2019-05-12T05:55:25.884Z,2.37
2019-05-12T05:58:07.753Z,4.15
2019-05-12T06:00:43.474Z,2.85
2019-05-12T06:03:22.904Z,4.80
2019-05-12T06:05:56.305Z,3.80
2019-05-12T06:08:33.937Z,2.62
2019-05-12T06:11:14.698Z,3.72
2019-05-12T06:13:53.433Z,6.72
2019-05-12T06:16:28.539Z,5.87
2019-05-12T06:19:07.504Z,4.58
2019-05-12T06:21:46.808Z,3.77
2019-05-12T06:24:24.834Z,4.70
2019-05-12T06:27:14.645Z,7.58
2019-05-12T06:29:43.645Z,4.40
2019-05-12T06:32:20.651Z,3.75
2019-05-12T06:35:01.475Z,6.45
2019-05-12T06:37:34.754Z,5.90
2019-05-12T06:40:14.063Z,4.22
2019-05-12T06:42:55.644Z,2.83
2019-05-12T06:45:36.562Z,4.72
2019-05-12T06:48:09.494Z,5.97
2019-05-12T06:50:50.045Z,3.40
2019-05-12T06:53:30.965Z,4.25
2019-05-12T06:56:09.478Z,4.00
2019-05-12T06:58:47.063Z,2.85
2019-05-12T07:01:26.650Z,4.72
2019-05-12T07:04:06.607Z,3.87
2019-05-12T07:06:44.150Z,6.97
2019-05-12T07:09:24.977Z,4.78
2019-05-12T07:12:06.264Z,6.55
2019-05-12T07:14:40.925Z,4.25
2019-05-12T07:17:49.627Z,8.05
2019-05-12T07:20:24.137Z,4.08
2019-05-12T07:23:03.979Z,6.45
2019-05-12T07:25:44.562Z,3.77
2019-05-12T07:28:23.696Z,7.33
2019-05-12T07:31:03.684Z,5.95
2019-05-12T07:33:41.649Z,5.92
2019-05-12T07:36:19.854Z,4.85
2019-05-12T07:39:03.899Z,3.47
2019-05-12T07:41:50.851Z,3.33
2019-05-12T07:44:24.976Z,4.35
2019-05-12T07:47:03.378Z,7.05
2019-05-12T07:49:41.006Z,5.85
2019-05-12T07:52:18.718Z,6.35
2019-05-12T07:54:56.525Z,4.97
2019-05-12T07:57:40.711Z,7.67
2019-05-12T08:00:21.192Z,10.25
2019-05-12T08:02:54.023Z,6.78
2019-05-12T08:05:34.077Z,5.22
2019-05-12T08:08:14.482Z,6.65
2019-05-12T08:10:55.665Z,5.25
2019-05-12T08:13:31.187Z,8.95
2019-05-12T08:16:14.016Z,9.13
2019-05-12T08:18:53.379Z,6.45
2019-05-12T08:21:36.993Z,9.03
2019-05-12T08:24:14.163Z,7.70
2019-05-12T08:26:59.521Z,10.40
2019-05-12T08:29:30.103Z,8.80
2019-05-12T08:32:09.819Z,7.12
2019-05-12T08:34:43.614Z,9.80
2019-05-12T08:37:20.535Z,12.73
2019-05-12T08:40:04.305Z,9.50
2019-05-12T08:42:40.130Z,9.90
2019-05-12T08:45:27.399Z,7.60
2019-05-12T08:47:59.410Z,10.13
2019-05-12T08:50:39.131Z,9.83
2019-05-12T08:53:21.035Z,8.23
2019-05-12T08:55:55.639Z,10.23
2019-05-12T08:58:39.195Z,11.88
2019-05-12T09:01:06.987Z,10.03
2019-05-12T09:03:46.656Z,13.83
2019-05-12T09:06:23.602Z,11.80
2019-05-12T09:08:58.249Z,14.03
2019-05-12T09:11:38.374Z,17.62
2019-05-12T09:14:18.265Z,15.40
2019-05-12T09:17:02.501Z,21.65
2019-05-12T09:19:39.115Z,15.48
2019-05-12T09:22:20.770Z,11.18
2019-05-12T09:24:58.326Z,27.98
2019-05-12T09:27:39.614Z,20.30
2019-05-12T09:30:15.184Z,15.32
2019-05-12T09:32:56.058Z,13.22
2019-05-12T09:35:38.859Z,18.30
2019-05-12T09:38:20.880Z,17.82
2019-05-12T09:40:52.894Z,19.15
2019-05-12T09:43:26.648Z,16.23
2019-05-12T09:46:04.325Z,14.78
2019-05-12T09:48:45.647Z,20.80
2019-05-12T09:51:20.851Z,16.77
2019-05-12T09:53:58.722Z,19.75
2019-05-12T09:56:35.130Z,19.05
2019-05-12T09:59:18.977Z,20.17
2019-05-12T10:01:55.737Z,19.62
2019-05-12T10:04:33.076Z,18.25
2019-05-12T10:07:14.112Z,20.32
2019-05-12T10:09:55.073Z,19.80
2019-05-12T10:12:36.576Z,18.35
2019-05-12T10:15:18.668Z,22.62
2019-05-12T10:17:54.034Z,19.48
2019-05-12T10:20:34.362Z,17.62
2019-05-12T10:23:10.349Z,27.05
2019-05-12T10:25:50.008Z,26.07
2019-05-12T10:28:30.306Z,21.25
2019-05-12T10:31:06.609Z,22.13
2019-05-12T10:33:48.873Z,19.42
2019-05-12T10:36:24.565Z,21.80
2019-05-12T10:39:04.556Z,24.35
2019-05-12T10:41:43.713Z,22.52
2019-05-12T10:44:19.301Z,22.07
2019-05-12T10:46:56.862Z,21.02
2019-05-12T10:49:35.623Z,25.37
2019-05-12T10:52:10.716Z,21.02
2019-05-12T10:54:51.191Z,22.13
2019-05-12T10:57:26.540Z,21.45
2019-05-12T11:00:05.675Z,20.45
2019-05-12T11:02:43.312Z,23.85
2019-05-12T11:05:25.432Z,25.30
2019-05-12T11:08:05.728Z,22.73
2019-05-12T11:10:39.985Z,27.58
2019-05-12T11:13:21.405Z,22.98
2019-05-12T11:15:59.805Z,24.15
2019-05-12T11:18:37.970Z,24.02
2019-05-12T11:21:17.669Z,20.00
2019-05-12T11:23:55.782Z,21.20
2019-05-12T11:26:35.258Z,26.12
2019-05-12T11:29:14.023Z,23.62
2019-05-12T11:31:53.878Z,25.12
2019-05-12T11:34:33.158Z,24.10
2019-05-12T11:37:13.858Z,24.50
2019-05-12T11:39:49.342Z,26.02
2019-05-12T11:42:27.028Z,23.12
2019-05-12T11:45:08.451Z,21.42
2019-05-12T11:47:49.455Z,25.92
2019-05-12T11:50:30.189Z,28.07
2019-05-12T11:53:07.803Z,25.88
2019-05-12T11:55:44.514Z,26.77
2019-05-12T11:58:23.427Z,26.82
2019-05-12T12:01:06.356Z,22.90
2019-05-12T12:03:43.948Z,24.05
2019-05-12T12:06:21.209Z,21.42
2019-05-12T12:08:57.805Z,22.90
2019-05-12T12:11:35.419Z,23.80
2019-05-12T12:14:13.842Z,21.40
2019-05-12T12:16:52.374Z,18.92
2019-05-12T12:19:37.727Z,20.48
2019-05-12T12:22:08.784Z,21.12
2019-05-12T12:24:46.785Z,23.05
2019-05-12T12:27:28.891Z,19.90
2019-05-12T12:30:18.547Z,20.08
2019-05-12T12:32:45.236Z,23.80
2019-05-12T12:35:23.345Z,19.57
2019-05-12T12:38:04.977Z,21.10
2019-05-12T12:40:44.210Z,19.07
2019-05-12T12:43:24.785Z,22.62
2019-05-12T12:46:21.402Z,24.30
2019-05-12T12:49:00.092Z,19.15
2019-05-12T12:51:34.520Z,20.10
2019-05-12T12:54:16.451Z,20.62
2019-05-12T12:56:54.167Z,21.30
2019-05-12T12:59:29.309Z,22.75
2019-05-12T13:02:09.980Z,21.30
2019-05-12T13:04:50.332Z,21.25
2019-05-12T13:07:28.643Z,20.37
2019-05-12T13:10:10.122Z,23.35
2019-05-12T13:12:45.209Z,22.48
2019-05-12T13:15:29.915Z,19.90
2019-05-12T13:21:04.321Z,20.32
2019-05-12T13:23:45.510Z,24.63
2019-05-12T13:26:23.865Z,25.90
2019-05-12T13:29:20.307Z,22.77
2019-05-12T13:31:57.306Z,22.82
2019-05-12T13:34:34.728Z,22.22
2019-05-12T13:37:29.439Z,23.18
2019-05-12T13:40:04.634Z,22.62
2019-05-12T13:42:43.770Z,18.57
2019-05-12T13:45:18.865Z,19.15
2019-05-12T13:47:54.091Z,18.75
2019-05-12T13:50:30.486Z,20.90
2019-05-12T13:53:10.136Z,18.67
2019-05-12T13:55:49.714Z,17.42
2019-05-12T13:58:34.629Z,17.85
2019-05-12T14:01:16.989Z,14.55
2019-05-12T14:03:53.605Z,15.08
2019-05-12T14:06:48.909Z,16.25
2019-05-12T14:09:24.027Z,17.30
2019-05-12T14:12:04.337Z,15.13
2019-05-12T14:14:43.615Z,18.67
2019-05-12T14:17:30.892Z,18.30
2019-05-12T14:20:09.449Z,19.32
2019-05-12T14:22:44.736Z,16.87
2019-05-12T14:25:30.424Z,17.62
2019-05-12T14:28:05.547Z,18.82
2019-05-12T14:30:49.803Z,20.97
2019-05-12T14:33:21.265Z,15.95
2019-05-12T14:35:56.542Z,17.40
2019-05-12T14:38:34.033Z,21.87
2019-05-12T14:41:12.350Z,16.77
2019-05-12T14:43:47.934Z,18.62
2019-05-12T14:46:27.441Z,21.27
2019-05-12T14:49:08.332Z,16.82
2019-05-12T14:51:44.341Z,16.55
2019-05-12T14:54:23.906Z,16.30
2019-05-12T14:57:03.549Z,16.80
2019-05-12T14:59:41.938Z,17.65
2019-05-12T15:02:24.681Z,17.20
2019-05-12T15:05:00.244Z,15.05
2019-05-12T15:07:44.593Z,15.05
2019-05-12T15:10:19.203Z,18.50
2019-05-12T15:12:54.629Z,14.85
2019-05-12T15:15:33.607Z,15.55
2019-05-12T15:18:13.764Z,16.17
2019-05-12T15:20:53.917Z,13.72
2019-05-12T15:23:32.751Z,13.18
2019-05-12T15:26:17.717Z,15.10
2019-05-12T15:28:47.462Z,11.10
2019-05-12T15:31:25.218Z,11.80
2019-05-12T15:34:03.582Z,13.15
2019-05-12T15:36:43.691Z,13.18
2019-05-12T15:39:20.270Z,11.22
2019-05-12T15:41:56.433Z,11.38
2019-05-12T15:44:37.052Z,12.00
2019-05-12T15:47:14.775Z,10.68
2019-05-12T15:49:50.315Z,12.10
2019-05-12T15:52:29.802Z,10.08
2019-05-12T15:55:07.830Z,10.70
2019-05-12T15:57:48.548Z,13.25
2019-05-12T16:00:28.071Z,10.40
2019-05-12T16:03:06.885Z,11.22
2019-05-12T16:05:44.638Z,10.68
2019-05-12T16:08:24.326Z,11.50
2019-05-12T16:11:01.227Z,10.32
2019-05-12T16:13:38.843Z,11.50
2019-05-12T16:16:14.395Z,11.57
2019-05-12T16:18:50.772Z,10.13
2019-05-12T16:21:25.940Z,10.88
2019-05-12T16:24:10.775Z,12.25
2019-05-12T16:26:45.376Z,12.43
2019-05-12T16:29:19.397Z,11.28
2019-05-12T16:31:55.182Z,11.33
2019-05-12T16:34:36.090Z,10.88
2019-05-12T16:37:14.271Z,15.63
2019-05-12T16:39:49.403Z,10.80
2019-05-12T16:42:28.784Z,11.28
2019-05-12T16:45:14.326Z,13.03
2019-05-12T16:47:49.622Z,13.30
2019-05-12T16:50:27.812Z,11.95
2019-05-12T16:53:01.137Z,12.47
2019-05-12T16:55:45.377Z,12.03
2019-05-12T16:58:17.642Z,11.63
2019-05-12T17:00:56.679Z,10.88
2019-05-12T17:03:37.194Z,14.58
2019-05-12T17:06:16.703Z,13.95
2019-05-12T17:08:54.998Z,10.32
2019-05-12T17:11:31.235Z,14.90
2019-05-12T17:14:09.115Z,11.50
2019-05-12T17:16:48.177Z,13.50
2019-05-12T17:19:26.165Z,13.15
2019-05-12T17:22:04.033Z,10.43
2019-05-12T17:24:39.575Z,13.83
2019-05-12T17:27:23.971Z,12.33
2019-05-12T17:30:04.471Z,12.95
2019-05-12T17:32:56.549Z,12.20
2019-05-12T17:35:20.400Z,11.28
2019-05-12T17:37:54.172Z,11.08
2019-05-12T17:40:33.719Z,11.28
2019-05-12T17:43:11.973Z,12.30
2019-05-12T17:45:50.546Z,11.55
2019-05-12T17:48:25.831Z,12.75
2019-05-12T17:51:03.875Z,11.05
2019-05-12T17:53:43.567Z,13.78
2019-05-12T17:59:04.364Z,13.22
2019-05-12T18:04:26.608Z,13.55
2019-05-12T18:07:12.554Z,19.60
2019-05-12T18:12:44.503Z,14.07
2019-05-12T18:15:16.233Z,13.30
2019-05-12T18:17:53.822Z,22.25
2019-05-12T18:20:37.294Z,14.85
2019-05-12T18:23:10.290Z,15.20
2019-05-12T18:25:47.981Z,15.80
2019-05-12T18:28:29.178Z,13.95
2019-05-12T18:31:06.624Z,15.20
2019-05-12T18:33:52.244Z,16.27
2019-05-12T18:36:26.212Z,19.42
2019-05-12T18:39:09.727Z,15.00
2019-05-12T18:41:43.880Z,15.63
2019-05-12T18:44:28.886Z,14.58
2019-05-12T18:47:04.128Z,14.20
2019-05-12T18:49:42.048Z,15.95
2019-05-12T18:52:16.371Z,12.90
2019-05-12T18:54:57.119Z,14.43
2019-05-12T18:57:39.232Z,13.65
2019-05-12T19:00:21.569Z,14.18
2019-05-12T19:03:08.029Z,16.73
2019-05-12T19:05:40.630Z,16.40
2019-05-12T19:08:23.653Z,15.30
2019-05-12T19:11:14.956Z,12.80
2019-05-12T19:13:43.186Z,12.68
2019-05-12T19:16:20.560Z,12.28
2019-05-12T19:18:55.961Z,14.45
2019-05-12T19:21:33.926Z,15.55
2019-05-12T19:24:17.615Z,14.47
2019-05-12T19:26:54.135Z,12.15
2019-05-12T19:29:38.674Z,13.30
2019-05-12T19:32:14.305Z,14.07
2019-05-12T19:34:51.154Z,11.65
2019-05-12T19:37:29.783Z,11.30
2019-05-12T19:40:12.221Z,11.93
2019-05-12T19:42:43.673Z,12.43
2019-05-12T19:45:21.958Z,11.00
2019-05-12T19:47:57.687Z,13.62
2019-05-12T19:50:35.190Z,13.18
2019-05-12T19:53:13.312Z,15.20
2019-05-12T19:55:53.401Z,13.68
2019-05-12T19:58:33.863Z,17.40
2019-05-12T20:01:10.063Z,12.20
2019-05-12T20:03:50.112Z,11.90
2019-05-12T20:06:26.139Z,14.07
2019-05-12T20:09:08.313Z,14.78
2019-05-12T20:11:40.410Z,12.85
2019-05-12T20:14:21.474Z,12.55
2019-05-12T20:16:56.249Z,13.83
2019-05-12T20:19:34.042Z,10.80
2019-05-12T20:22:09.240Z,11.60
2019-05-12T20:24:48.264Z,12.25
2019-05-12T20:27:24.690Z,12.75
2019-05-12T20:30:06.305Z,14.40
2019-05-12T20:32:43.514Z,10.95
2019-05-12T20:35:22.605Z,14.75
2019-05-12T20:38:04.108Z,13.62
2019-05-12T20:40:43.274Z,14.20
2019-05-12T20:43:24.116Z,12.40
2019-05-12T20:48:44.497Z,11.90
2019-05-12T20:51:21.789Z,15.45
2019-05-12T20:53:59.540Z,13.30
2019-05-12T20:56:36.018Z,13.13
2019-05-12T20:59:21.679Z,13.05
2019-05-12T21:01:52.310Z,12.82
2019-05-12T21:04:31.916Z,12.80
2019-05-12T21:07:07.456Z,13.53
2019-05-12T21:09:46.311Z,12.33
2019-05-12T21:12:24.249Z,15.68
2019-05-12T21:15:13.861Z,15.00
2019-05-12T21:17:43.577Z,10.82
2019-05-12T21:20:20.756Z,12.85
2019-05-12T21:23:00.087Z,11.95
2019-05-12T21:25:37.769Z,12.85
2019-05-12T21:28:19.404Z,14.83
2019-05-12T21:30:58.325Z,11.22
2019-05-12T21:33:39.936Z,10.53
2019-05-12T21:36:17.479Z,10.78
2019-05-12T21:38:54.306Z,13.50
2019-05-12T21:41:34.360Z,10.53
2019-05-12T21:44:11.263Z,10.13
2019-05-12T21:46:57.109Z,11.97
2019-05-12T21:49:25.562Z,10.98
2019-05-12T21:52:04.143Z,10.15
2019-05-12T21:54:43.949Z,10.68
2019-05-12T21:57:27.519Z,14.45
2019-05-12T22:00:00.563Z,9.83
2019-05-12T22:02:38.208Z,9.58
2019-05-12T22:05:21.983Z,9.43
2019-05-12T22:07:52.039Z,9.38
2019-05-12T22:10:30.765Z,8.50
2019-05-12T22:13:14.690Z,11.20
2019-05-12T22:15:51.375Z,9.15
2019-05-12T22:18:29.120Z,8.38
2019-05-12T22:21:07.095Z,6.78
2019-05-12T22:23:51.221Z,16.97
2019-05-12T22:26:21.859Z,12.30
2019-05-12T22:29:04.184Z,16.20
2019-05-12T22:31:44.704Z,15.80
2019-05-12T22:34:15.972Z,10.38
2019-05-12T22:36:55.261Z,11.63
2019-05-12T22:39:27.207Z,14.63
2019-05-12T22:42:03.539Z,8.90
2019-05-12T22:44:39.641Z,15.58
2019-05-12T22:47:17.652Z,12.07
2019-05-12T22:49:56.989Z,11.48
2019-05-12T22:52:33.767Z,12.40
2019-05-12T22:55:08.339Z,12.35
2019-05-12T22:57:44.976Z,59.73
2019-05-12T23:00:24.374Z,11.75
2019-05-12T23:03:07.310Z,10.60
2019-05-12T23:05:40.525Z,11.57
2019-05-12T23:08:18.326Z,11.25
2019-05-12T23:10:56.125Z,15.58
2019-05-12T23:13:41.031Z,15.08
2019-05-12T23:16:10.894Z,10.25
2019-05-12T23:18:46.038Z,15.72
2019-05-12T23:21:21.401Z,13.08
2019-05-12T23:24:03.626Z,12.88
2019-05-12T23:26:42.304Z,16.32
2019-05-12T23:29:20.613Z,13.00
2019-05-12T23:32:00.615Z,13.53
2019-05-12T23:34:37.247Z,13.65
2019-05-12T23:37:15.148Z,13.43
2019-05-12T23:39:53.733Z,13.28
2019-05-12T23:42:31.559Z,12.40
2019-05-12T23:45:10.648Z,12.73
2019-05-12T23:47:48.413Z,15.25
2019-05-12T23:50:29.249Z,15.58
2019-05-12T23:53:07.267Z,18.82
2019-05-12T23:55:44.868Z,14.78
2019-05-12T23:58:23.580Z,13.78
